sensor_id;sensor_type;location;lat;lon;timestamp;P1;durP1;ratioP1;P2;durP2;ratioP2
11614;SDS011;5863;52.832;4.758;2023-04-03T00:01:35;4.47;;;1.47;;
11614;SDS011;5863;52.832;4.758;2023-04-03T00:04:03;1.50;;;1.20;;
11614;SDS011;5863;52.832;4.758;2023-04-03T00:06:31;3.57;;;1.37;;
11614;SDS011;5863;52.832;4.758;2023-04-03T00:08:58;3.00;;;1.40;;
11614;SDS011;5863;52.832;4.758;2023-04-03T00:11:25;3.70;;;1.50;;
11614;SDS011;5863;52.832;4.758;2023-04-03T00:13:52;1.90;;;1.40;;
11614;SDS011;5863;52.832;4.758;2023-04-03T00:16:18;2.53;;;1.50;;
11614;SDS011;5863;52.832;4.758;2023-04-03T00:18:47;1.67;;;1.20;;
11614;SDS011;5863;52.832;4.758;2023-04-03T00:21:13;2.57;;;1.30;;
11614;SDS011;5863;52.832;4.758;2023-04-03T00:23:42;2.60;;;1.20;;
11614;SDS011;5863;52.832;4.758;2023-04-03T00:26:08;2.60;;;1.33;;
11614;SDS011;5863;52.832;4.758;2023-04-03T00:28:35;3.53;;;1.13;;
11614;SDS011;5863;52.832;4.758;2023-04-03T00:31:02;3.10;;;1.20;;
11614;SDS011;5863;52.832;4.758;2023-04-03T00:33:29;1.53;;;1.40;;
11614;SDS011;5863;52.832;4.758;2023-04-03T00:35:56;2.43;;;1.83;;
11614;SDS011;5863;52.832;4.758;2023-04-03T00:38:22;1.63;;;1.30;;
11614;SDS011;5863;52.832;4.758;2023-04-03T00:40:50;1.30;;;1.20;;
11614;SDS011;5863;52.832;4.758;2023-04-03T00:43:18;1.40;;;1.27;;
11614;SDS011;5863;52.832;4.758;2023-04-03T00:45:46;3.83;;;1.53;;
11614;SDS011;5863;52.832;4.758;2023-04-03T00:48:20;3.17;;;1.57;;
11614;SDS011;5863;52.832;4.758;2023-04-03T00:50:50;1.70;;;1.60;;
11614;SDS011;5863;52.832;4.758;2023-04-03T00:53:19;3.50;;;1.50;;
11614;SDS011;5863;52.832;4.758;2023-04-03T00:55:53;2.17;;;1.40;;
11614;SDS011;5863;52.832;4.758;2023-04-03T00:58:22;2.57;;;1.33;;
11614;SDS011;5863;52.832;4.758;2023-04-03T01:00:55;2.57;;;1.60;;
11614;SDS011;5863;52.832;4.758;2023-04-03T01:03:25;2.17;;;1.07;;
11614;SDS011;5863;52.832;4.758;2023-04-03T01:05:52;4.80;;;1.70;;
11614;SDS011;5863;52.832;4.758;2023-04-03T01:08:18;2.20;;;1.10;;
11614;SDS011;5863;52.832;4.758;2023-04-03T01:10:45;2.30;;;1.23;;
11614;SDS011;5863;52.832;4.758;2023-04-03T01:13:23;5.23;;;1.70;;
11614;SDS011;5863;52.832;4.758;2023-04-03T01:15:51;1.77;;;1.60;;
11614;SDS011;5863;52.832;4.758;2023-04-03T01:18:18;1.87;;;1.40;;
11614;SDS011;5863;52.832;4.758;2023-04-03T01:23:43;2.20;;;1.53;;
11614;SDS011;5863;52.832;4.758;2023-04-03T01:26:19;2.37;;;1.40;;
11614;SDS011;5863;52.832;4.758;2023-04-03T01:28:47;2.20;;;1.50;;
11614;SDS011;5863;52.832;4.758;2023-04-03T01:31:15;1.30;;;1.20;;
11614;SDS011;5863;52.832;4.758;2023-04-03T01:33:49;3.37;;;1.50;;
11614;SDS011;5863;52.832;4.758;2023-04-03T01:36:17;3.07;;;1.60;;
11614;SDS011;5863;52.832;4.758;2023-04-03T01:38:45;3.93;;;1.57;;
11614;SDS011;5863;52.832;4.758;2023-04-03T01:41:12;3.83;;;1.50;;
11614;SDS011;5863;52.832;4.758;2023-04-03T01:43:39;3.17;;;1.40;;
11614;SDS011;5863;52.832;4.758;2023-04-03T01:46:05;2.67;;;1.40;;
11614;SDS011;5863;52.832;4.758;2023-04-03T01:51:01;2.70;;;1.60;;
11614;SDS011;5863;52.832;4.758;2023-04-03T01:53:27;3.03;;;1.60;;
11614;SDS011;5863;52.832;4.758;2023-04-03T01:55:54;2.17;;;1.30;;
11614;SDS011;5863;52.832;4.758;2023-04-03T01:58:22;4.23;;;1.50;;
11614;SDS011;5863;52.832;4.758;2023-04-03T02:00:48;1.73;;;1.20;;
11614;SDS011;5863;52.832;4.758;2023-04-03T02:03:15;2.13;;;1.50;;
11614;SDS011;5863;52.832;4.758;2023-04-03T02:05:42;3.07;;;1.50;;
11614;SDS011;5863;52.832;4.758;2023-04-03T02:08:10;4.27;;;1.80;;
11614;SDS011;5863;52.832;4.758;2023-04-03T02:10:36;3.73;;;1.70;;
11614;SDS011;5863;52.832;4.758;2023-04-03T02:13:03;3.67;;;1.30;;
11614;SDS011;5863;52.832;4.758;2023-04-03T02:15:30;3.20;;;1.50;;
11614;SDS011;5863;52.832;4.758;2023-04-03T02:17:56;2.63;;;1.50;;
11614;SDS011;5863;52.832;4.758;2023-04-03T02:20:23;3.03;;;1.33;;
11614;SDS011;5863;52.832;4.758;2023-04-03T02:22:50;3.60;;;1.43;;
11614;SDS011;5863;52.832;4.758;2023-04-03T02:25:18;3.17;;;1.40;;
11614;SDS011;5863;52.832;4.758;2023-04-03T02:27:45;4.60;;;1.13;;
11614;SDS011;5863;52.832;4.758;2023-04-03T02:30:13;1.93;;;1.40;;
11614;SDS011;5863;52.832;4.758;2023-04-03T02:32:40;4.17;;;1.37;;
11614;SDS011;5863;52.832;4.758;2023-04-03T02:35:07;3.20;;;1.60;;
11614;SDS011;5863;52.832;4.758;2023-04-03T02:37:35;2.90;;;1.47;;
11614;SDS011;5863;52.832;4.758;2023-04-03T02:40:02;2.10;;;1.07;;
11614;SDS011;5863;52.832;4.758;2023-04-03T02:42:31;2.63;;;1.50;;
11614;SDS011;5863;52.832;4.758;2023-04-03T02:44:58;1.73;;;1.30;;
11614;SDS011;5863;52.832;4.758;2023-04-03T02:47:25;2.10;;;1.10;;
11614;SDS011;5863;52.832;4.758;2023-04-03T02:49:52;2.00;;;1.40;;
11614;SDS011;5863;52.832;4.758;2023-04-03T02:52:19;3.13;;;1.53;;
11614;SDS011;5863;52.832;4.758;2023-04-03T02:54:46;2.63;;;1.37;;
11614;SDS011;5863;52.832;4.758;2023-04-03T02:57:13;2.77;;;1.40;;
11614;SDS011;5863;52.832;4.758;2023-04-03T02:59:41;2.00;;;1.37;;
11614;SDS011;5863;52.832;4.758;2023-04-03T03:02:07;1.77;;;1.23;;
11614;SDS011;5863;52.832;4.758;2023-04-03T03:04:35;3.30;;;1.40;;
11614;SDS011;5863;52.832;4.758;2023-04-03T03:07:03;2.40;;;1.33;;
11614;SDS011;5863;52.832;4.758;2023-04-03T03:09:30;3.90;;;1.57;;
11614;SDS011;5863;52.832;4.758;2023-04-03T03:11:56;3.13;;;1.70;;
11614;SDS011;5863;52.832;4.758;2023-04-03T03:14:23;2.10;;;1.30;;
11614;SDS011;5863;52.832;4.758;2023-04-03T03:16:58;3.93;;;1.33;;
11614;SDS011;5863;52.832;4.758;2023-04-03T03:19:25;2.80;;;1.33;;
11614;SDS011;5863;52.832;4.758;2023-04-03T03:21:51;2.57;;;1.40;;
11614;SDS011;5863;52.832;4.758;2023-04-03T03:24:18;2.00;;;1.27;;
11614;SDS011;5863;52.832;4.758;2023-04-03T03:26:45;3.13;;;1.30;;
11614;SDS011;5863;52.832;4.758;2023-04-03T03:29:11;2.60;;;1.60;;
11614;SDS011;5863;52.832;4.758;2023-04-03T03:31:38;3.83;;;1.43;;
11614;SDS011;5863;52.832;4.758;2023-04-03T03:34:06;3.63;;;1.30;;
11614;SDS011;5863;52.832;4.758;2023-04-03T03:36:33;2.93;;;1.50;;
11614;SDS011;5863;52.832;4.758;2023-04-03T03:39:00;2.33;;;1.40;;
11614;SDS011;5863;52.832;4.758;2023-04-03T03:41:27;3.17;;;1.47;;
11614;SDS011;5863;52.832;4.758;2023-04-03T03:43:53;1.47;;;1.27;;
11614;SDS011;5863;52.832;4.758;2023-04-03T03:46:24;4.30;;;1.70;;
11614;SDS011;5863;52.832;4.758;2023-04-03T03:48:51;5.60;;;1.60;;
11614;SDS011;5863;52.832;4.758;2023-04-03T03:51:19;2.57;;;1.30;;
11614;SDS011;5863;52.832;4.758;2023-04-03T03:53:45;2.90;;;1.80;;
11614;SDS011;5863;52.832;4.758;2023-04-03T03:56:12;2.53;;;1.37;;
11614;SDS011;5863;52.832;4.758;2023-04-03T03:58:39;2.53;;;1.30;;
11614;SDS011;5863;52.832;4.758;2023-04-03T04:01:06;3.37;;;1.40;;
11614;SDS011;5863;52.832;4.758;2023-04-03T04:03:33;3.27;;;1.50;;
11614;SDS011;5863;52.832;4.758;2023-04-03T04:06:00;4.47;;;1.70;;
11614;SDS011;5863;52.832;4.758;2023-04-03T04:08:28;3.57;;;1.60;;
11614;SDS011;5863;52.832;4.758;2023-04-03T04:10:54;2.73;;;1.50;;
11614;SDS011;5863;52.832;4.758;2023-04-03T04:13:21;7.03;;;1.70;;
11614;SDS011;5863;52.832;4.758;2023-04-03T04:15:48;3.30;;;1.60;;
11614;SDS011;5863;52.832;4.758;2023-04-03T04:18:14;4.00;;;2.17;;
11614;SDS011;5863;52.832;4.758;2023-04-03T04:20:44;4.20;;;1.53;;
11614;SDS011;5863;52.832;4.758;2023-04-03T04:23:11;4.10;;;1.70;;
11614;SDS011;5863;52.832;4.758;2023-04-03T04:25:39;2.33;;;1.63;;
11614;SDS011;5863;52.832;4.758;2023-04-03T04:28:06;3.10;;;1.73;;
11614;SDS011;5863;52.832;4.758;2023-04-03T04:30:32;5.80;;;1.70;;
11614;SDS011;5863;52.832;4.758;2023-04-03T04:32:59;3.13;;;1.77;;
11614;SDS011;5863;52.832;4.758;2023-04-03T04:35:26;5.77;;;1.80;;
11614;SDS011;5863;52.832;4.758;2023-04-03T04:37:53;2.77;;;1.70;;
11614;SDS011;5863;52.832;4.758;2023-04-03T04:40:19;5.23;;;1.77;;
11614;SDS011;5863;52.832;4.758;2023-04-03T04:42:50;2.13;;;1.50;;
11614;SDS011;5863;52.832;4.758;2023-04-03T04:45:16;1.73;;;1.40;;
11614;SDS011;5863;52.832;4.758;2023-04-03T04:47:43;3.00;;;1.90;;
11614;SDS011;5863;52.832;4.758;2023-04-03T04:50:10;2.57;;;1.77;;
11614;SDS011;5863;52.832;4.758;2023-04-03T04:52:37;2.03;;;1.60;;
11614;SDS011;5863;52.832;4.758;2023-04-03T04:55:04;2.87;;;1.77;;
11614;SDS011;5863;52.832;4.758;2023-04-03T04:57:32;2.40;;;1.80;;
11614;SDS011;5863;52.832;4.758;2023-04-03T05:00:01;3.30;;;1.80;;
11614;SDS011;5863;52.832;4.758;2023-04-03T05:02:28;3.37;;;1.80;;
11614;SDS011;5863;52.832;4.758;2023-04-03T05:04:54;3.03;;;1.93;;
11614;SDS011;5863;52.832;4.758;2023-04-03T05:07:21;2.70;;;1.80;;
11614;SDS011;5863;52.832;4.758;2023-04-03T05:09:48;3.50;;;1.87;;
11614;SDS011;5863;52.832;4.758;2023-04-03T05:12:28;2.60;;;1.80;;
11614;SDS011;5863;52.832;4.758;2023-04-03T05:14:55;1.73;;;1.53;;
11614;SDS011;5863;52.832;4.758;2023-04-03T05:17:23;2.83;;;1.80;;
11614;SDS011;5863;52.832;4.758;2023-04-03T05:19:50;2.73;;;1.70;;
11614;SDS011;5863;52.832;4.758;2023-04-03T05:22:16;4.30;;;1.87;;
11614;SDS011;5863;52.832;4.758;2023-04-03T05:24:43;4.23;;;1.90;;
11614;SDS011;5863;52.832;4.758;2023-04-03T05:27:10;5.40;;;2.30;;
11614;SDS011;5863;52.832;4.758;2023-04-03T05:29:43;2.77;;;1.80;;
11614;SDS011;5863;52.832;4.758;2023-04-03T05:32:10;4.43;;;2.00;;
11614;SDS011;5863;52.832;4.758;2023-04-03T05:34:38;4.20;;;1.80;;
11614;SDS011;5863;52.832;4.758;2023-04-03T05:37:04;4.13;;;1.77;;
11614;SDS011;5863;52.832;4.758;2023-04-03T05:39:33;7.30;;;1.90;;
11614;SDS011;5863;52.832;4.758;2023-04-03T05:42:00;3.37;;;2.10;;
11614;SDS011;5863;52.832;4.758;2023-04-03T05:44:29;6.53;;;2.27;;
11614;SDS011;5863;52.832;4.758;2023-04-03T05:46:55;7.67;;;2.33;;
11614;SDS011;5863;52.832;4.758;2023-04-03T05:49:22;3.57;;;1.90;;
11614;SDS011;5863;52.832;4.758;2023-04-03T05:51:50;5.97;;;1.90;;
11614;SDS011;5863;52.832;4.758;2023-04-03T05:54:19;4.50;;;1.90;;
11614;SDS011;5863;52.832;4.758;2023-04-03T05:56:48;2.83;;;1.70;;
11614;SDS011;5863;52.832;4.758;2023-04-03T05:59:14;3.63;;;1.80;;
11614;SDS011;5863;52.832;4.758;2023-04-03T06:01:42;3.77;;;2.00;;
11614;SDS011;5863;52.832;4.758;2023-04-03T06:04:13;3.37;;;1.77;;
11614;SDS011;5863;52.832;4.758;2023-04-03T06:06:44;4.40;;;2.07;;
11614;SDS011;5863;52.832;4.758;2023-04-03T06:09:19;3.80;;;2.10;;
11614;SDS011;5863;52.832;4.758;2023-04-03T06:11:48;2.83;;;1.53;;
11614;SDS011;5863;52.832;4.758;2023-04-03T06:14:15;5.70;;;2.00;;
11614;SDS011;5863;52.832;4.758;2023-04-03T06:16:42;2.43;;;1.73;;
11614;SDS011;5863;52.832;4.758;2023-04-03T06:19:09;2.53;;;1.77;;
11614;SDS011;5863;52.832;4.758;2023-04-03T06:21:36;4.67;;;1.93;;
11614;SDS011;5863;52.832;4.758;2023-04-03T06:24:04;4.73;;;1.87;;
11614;SDS011;5863;52.832;4.758;2023-04-03T06:26:40;3.97;;;1.67;;
11614;SDS011;5863;52.832;4.758;2023-04-03T06:29:07;3.20;;;1.75;;
11614;SDS011;5863;52.832;4.758;2023-04-03T06:31:34;4.28;;;1.65;;
11614;SDS011;5863;52.832;4.758;2023-04-03T06:34:01;3.45;;;1.60;;
11614;SDS011;5863;52.832;4.758;2023-04-03T06:36:29;3.08;;;1.58;;
11614;SDS011;5863;52.832;4.758;2023-04-03T06:38:56;4.00;;;1.50;;
11614;SDS011;5863;52.832;4.758;2023-04-03T06:41:22;4.60;;;1.70;;
11614;SDS011;5863;52.832;4.758;2023-04-03T06:43:52;2.78;;;1.60;;
11614;SDS011;5863;52.832;4.758;2023-04-03T06:46:21;4.68;;;1.70;;
11614;SDS011;5863;52.832;4.758;2023-04-03T06:48:49;4.65;;;1.77;;
11614;SDS011;5863;52.832;4.758;2023-04-03T06:51:17;2.80;;;1.70;;
11614;SDS011;5863;52.832;4.758;2023-04-03T06:53:46;4.10;;;1.95;;
11614;SDS011;5863;52.832;4.758;2023-04-03T06:56:14;2.78;;;1.70;;
11614;SDS011;5863;52.832;4.758;2023-04-03T06:58:41;4.05;;;1.70;;
11614;SDS011;5863;52.832;4.758;2023-04-03T07:01:10;3.80;;;1.58;;
11614;SDS011;5863;52.832;4.758;2023-04-03T07:03:38;4.57;;;1.88;;
11614;SDS011;5863;52.832;4.758;2023-04-03T07:06:06;5.03;;;1.90;;
11614;SDS011;5863;52.832;4.758;2023-04-03T07:08:33;4.03;;;1.77;;
11614;SDS011;5863;52.832;4.758;2023-04-03T07:11:00;4.32;;;1.75;;
11614;SDS011;5863;52.832;4.758;2023-04-03T07:13:28;4.40;;;1.77;;
11614;SDS011;5863;52.832;4.758;2023-04-03T07:15:55;4.47;;;1.67;;
11614;SDS011;5863;52.832;4.758;2023-04-03T07:18:23;3.67;;;2.10;;
11614;SDS011;5863;52.832;4.758;2023-04-03T07:20:50;5.03;;;1.67;;
11614;SDS011;5863;52.832;4.758;2023-04-03T07:23:17;3.90;;;1.63;;
11614;SDS011;5863;52.832;4.758;2023-04-03T07:25:44;3.30;;;1.93;;
11614;SDS011;5863;52.832;4.758;2023-04-03T07:28:11;6.30;;;1.93;;
11614;SDS011;5863;52.832;4.758;2023-04-03T07:30:42;4.37;;;1.90;;
11614;SDS011;5863;52.832;4.758;2023-04-03T07:33:10;4.00;;;1.63;;
11614;SDS011;5863;52.832;4.758;2023-04-03T07:35:38;5.77;;;2.00;;
11614;SDS011;5863;52.832;4.758;2023-04-03T07:38:05;4.55;;;1.80;;
11614;SDS011;5863;52.832;4.758;2023-04-03T07:40:32;4.07;;;1.80;;
11614;SDS011;5863;52.832;4.758;2023-04-03T07:42:58;6.05;;;2.30;;
11614;SDS011;5863;52.832;4.758;2023-04-03T07:45:25;8.02;;;2.13;;
11614;SDS011;5863;52.832;4.758;2023-04-03T07:47:52;5.15;;;2.17;;
11614;SDS011;5863;52.832;4.758;2023-04-03T07:50:19;4.65;;;2.15;;
11614;SDS011;5863;52.832;4.758;2023-04-03T07:52:48;3.55;;;1.60;;
11614;SDS011;5863;52.832;4.758;2023-04-03T07:55:15;4.05;;;1.65;;
11614;SDS011;5863;52.832;4.758;2023-04-03T07:57:42;3.30;;;1.60;;
11614;SDS011;5863;52.832;4.758;2023-04-03T08:00:10;5.78;;;1.75;;
11614;SDS011;5863;52.832;4.758;2023-04-03T08:02:37;4.22;;;1.70;;
11614;SDS011;5863;52.832;4.758;2023-04-03T08:05:04;4.07;;;1.67;;
11614;SDS011;5863;52.832;4.758;2023-04-03T08:07:31;2.35;;;1.50;;
11614;SDS011;5863;52.832;4.758;2023-04-03T08:09:59;2.10;;;1.48;;
11614;SDS011;5863;52.832;4.758;2023-04-03T08:12:26;4.07;;;1.80;;
11614;SDS011;5863;52.832;4.758;2023-04-03T08:14:53;3.80;;;1.80;;
11614;SDS011;5863;52.832;4.758;2023-04-03T08:17:20;3.45;;;1.88;;
11614;SDS011;5863;52.832;4.758;2023-04-03T08:19:46;4.57;;;1.77;;
11614;SDS011;5863;52.832;4.758;2023-04-03T08:22:13;5.28;;;1.85;;
11614;SDS011;5863;52.832;4.758;2023-04-03T08:24:40;2.72;;;1.50;;
11614;SDS011;5863;52.832;4.758;2023-04-03T08:27:08;4.18;;;1.70;;
11614;SDS011;5863;52.832;4.758;2023-04-03T08:29:35;5.68;;;2.20;;
11614;SDS011;5863;52.832;4.758;2023-04-03T08:32:02;3.55;;;1.85;;
11614;SDS011;5863;52.832;4.758;2023-04-03T08:34:29;4.00;;;1.98;;
11614;SDS011;5863;52.832;4.758;2023-04-03T08:36:59;3.75;;;1.80;;
11614;SDS011;5863;52.832;4.758;2023-04-03T08:39:26;3.03;;;1.65;;
11614;SDS011;5863;52.832;4.758;2023-04-03T08:41:53;4.22;;;2.10;;
11614;SDS011;5863;52.832;4.758;2023-04-03T08:44:25;4.25;;;1.95;;
11614;SDS011;5863;52.832;4.758;2023-04-03T08:47:04;4.28;;;2.00;;
11614;SDS011;5863;52.832;4.758;2023-04-03T08:49:37;3.22;;;1.88;;
11614;SDS011;5863;52.832;4.758;2023-04-03T08:52:12;4.32;;;2.00;;
11614;SDS011;5863;52.832;4.758;2023-04-03T08:54:47;5.05;;;2.20;;
11614;SDS011;5863;52.832;4.758;2023-04-03T08:57:16;3.03;;;2.08;;
11614;SDS011;5863;52.832;4.758;2023-04-03T08:59:49;5.53;;;2.27;;
11614;SDS011;5863;52.832;4.758;2023-04-03T09:02:23;3.42;;;2.20;;
11614;SDS011;5863;52.832;4.758;2023-04-03T09:04:53;4.00;;;2.20;;
11614;SDS011;5863;52.832;4.758;2023-04-03T09:07:22;4.70;;;2.20;;
11614;SDS011;5863;52.832;4.758;2023-04-03T09:09:56;4.93;;;2.20;;
11614;SDS011;5863;52.832;4.758;2023-04-03T09:12:29;4.30;;;2.43;;
11614;SDS011;5863;52.832;4.758;2023-04-03T09:15:04;2.85;;;2.03;;
11614;SDS011;5863;52.832;4.758;2023-04-03T09:17:41;2.60;;;2.13;;
11614;SDS011;5863;52.832;4.758;2023-04-03T09:20:15;4.30;;;2.27;;
11614;SDS011;5863;52.832;4.758;2023-04-03T09:22:48;3.40;;;2.13;;
11614;SDS011;5863;52.832;4.758;2023-04-03T09:25:18;3.63;;;1.93;;
11614;SDS011;5863;52.832;4.758;2023-04-03T09:27:47;4.37;;;2.20;;
11614;SDS011;5863;52.832;4.758;2023-04-03T09:30:16;4.10;;;2.10;;
11614;SDS011;5863;52.832;4.758;2023-04-03T09:32:47;5.50;;;2.43;;
11614;SDS011;5863;52.832;4.758;2023-04-03T09:35:17;4.17;;;1.90;;
11614;SDS011;5863;52.832;4.758;2023-04-03T09:37:48;2.53;;;1.97;;
11614;SDS011;5863;52.832;4.758;2023-04-03T09:40:33;3.67;;;1.63;;
11614;SDS011;5863;52.832;4.758;2023-04-03T09:45:48;5.13;;;2.10;;
11614;SDS011;5863;52.832;4.758;2023-04-03T09:48:17;2.80;;;1.60;;
11614;SDS011;5863;52.832;4.758;2023-04-03T09:50:59;3.13;;;1.50;;
11614;SDS011;5863;52.832;4.758;2023-04-03T09:53:32;3.40;;;1.53;;
11614;SDS011;5863;52.832;4.758;2023-04-03T09:56:02;2.58;;;1.35;;
11614;SDS011;5863;52.832;4.758;2023-04-03T09:58:32;4.47;;;1.30;;
11614;SDS011;5863;52.832;4.758;2023-04-03T10:01:04;2.77;;;1.20;;
11614;SDS011;5863;52.832;4.758;2023-04-03T10:03:32;2.10;;;1.27;;
11614;SDS011;5863;52.832;4.758;2023-04-03T10:06:01;2.67;;;1.03;;
11614;SDS011;5863;52.832;4.758;2023-04-03T10:08:31;2.30;;;1.27;;
11614;SDS011;5863;52.832;4.758;2023-04-03T10:11:12;2.70;;;1.20;;
11614;SDS011;5863;52.832;4.758;2023-04-03T10:13:50;1.77;;;1.20;;
11614;SDS011;5863;52.832;4.758;2023-04-03T10:16:20;1.93;;;1.20;;
11614;SDS011;5863;52.832;4.758;2023-04-03T10:18:55;1.83;;;1.10;;
11614;SDS011;5863;52.832;4.758;2023-04-03T10:21:39;1.45;;;1.00;;
11614;SDS011;5863;52.832;4.758;2023-04-03T10:24:13;1.95;;;1.13;;
11614;SDS011;5863;52.832;4.758;2023-04-03T10:26:48;2.45;;;1.50;;
11614;SDS011;5863;52.832;4.758;2023-04-03T10:32:14;2.20;;;1.20;;
11614;SDS011;5863;52.832;4.758;2023-04-03T10:34:53;2.22;;;1.05;;
11614;SDS011;5863;52.832;4.758;2023-04-03T10:37:27;1.88;;;1.15;;
11614;SDS011;5863;52.832;4.758;2023-04-03T10:40:02;1.73;;;1.20;;
11614;SDS011;5863;52.832;4.758;2023-04-03T10:42:50;2.22;;;0.95;;
11614;SDS011;5863;52.832;4.758;2023-04-03T10:45:24;1.20;;;1.10;;
11614;SDS011;5863;52.832;4.758;2023-04-03T10:47:58;2.92;;;1.50;;
11614;SDS011;5863;52.832;4.758;2023-04-03T10:50:36;1.70;;;1.05;;
11614;SDS011;5863;52.832;4.758;2023-04-03T10:53:11;3.15;;;1.27;;
11614;SDS011;5863;52.832;4.758;2023-04-03T10:55:46;2.45;;;1.02;;
11614;SDS011;5863;52.832;4.758;2023-04-03T10:58:18;1.02;;;0.90;;
11614;SDS011;5863;52.832;4.758;2023-04-03T11:00:51;3.15;;;1.48;;
11614;SDS011;5863;52.832;4.758;2023-04-03T11:03:27;2.72;;;1.20;;
11614;SDS011;5863;52.832;4.758;2023-04-03T11:05:58;1.52;;;0.88;;
11614;SDS011;5863;52.832;4.758;2023-04-03T11:08:28;1.85;;;0.90;;
11614;SDS011;5863;52.832;4.758;2023-04-03T11:11:01;1.50;;;0.90;;
11614;SDS011;5863;52.832;4.758;2023-04-03T11:13:33;1.40;;;1.10;;
11614;SDS011;5863;52.832;4.758;2023-04-03T11:16:02;3.67;;;1.33;;
11614;SDS011;5863;52.832;4.758;2023-04-03T11:18:34;1.50;;;1.10;;
11614;SDS011;5863;52.832;4.758;2023-04-03T11:21:07;1.63;;;1.10;;
11614;SDS011;5863;52.832;4.758;2023-04-03T11:23:40;1.98;;;1.10;;
11614;SDS011;5863;52.832;4.758;2023-04-03T11:26:08;3.95;;;1.20;;
11614;SDS011;5863;52.832;4.758;2023-04-03T11:28:37;2.35;;;1.20;;
11614;SDS011;5863;52.832;4.758;2023-04-03T11:31:09;3.88;;;1.33;;
11614;SDS011;5863;52.832;4.758;2023-04-03T11:33:49;2.05;;;1.30;;
11614;SDS011;5863;52.832;4.758;2023-04-03T11:36:22;2.17;;;0.90;;
11614;SDS011;5863;52.832;4.758;2023-04-03T11:38:51;2.10;;;1.27;;
11614;SDS011;5863;52.832;4.758;2023-04-03T11:41:25;1.10;;;1.00;;
11614;SDS011;5863;52.832;4.758;2023-04-03T11:43:56;1.65;;;1.10;;
11614;SDS011;5863;52.832;4.758;2023-04-03T11:58:22;1.83;;;1.27;;
11614;SDS011;5863;52.832;4.758;2023-04-03T12:00:51;5.40;;;1.30;;
11614;SDS011;5863;52.832;4.758;2023-04-03T12:06:43;1.60;;;1.08;;
11614;SDS011;5863;52.832;4.758;2023-04-03T12:09:24;2.93;;;1.37;;
11614;SDS011;5863;52.832;4.758;2023-04-03T12:11:53;3.28;;;1.10;;
11614;SDS011;5863;52.832;4.758;2023-04-03T12:14:22;2.50;;;1.30;;
11614;SDS011;5863;52.832;4.758;2023-04-03T12:16:50;2.75;;;1.50;;
11614;SDS011;5863;52.832;4.758;2023-04-03T12:19:34;1.77;;;1.17;;
11614;SDS011;5863;52.832;4.758;2023-04-03T12:22:10;2.05;;;1.30;;
11614;SDS011;5863;52.832;4.758;2023-04-03T12:24:42;1.50;;;1.10;;
11614;SDS011;5863;52.832;4.758;2023-04-03T12:27:17;2.42;;;1.10;;
11614;SDS011;5863;52.832;4.758;2023-04-03T12:29:59;2.22;;;1.10;;
11614;SDS011;5863;52.832;4.758;2023-04-03T12:32:40;1.85;;;1.00;;
11614;SDS011;5863;52.832;4.758;2023-04-03T12:35:24;2.33;;;1.15;;
11614;SDS011;5863;52.832;4.758;2023-04-03T12:38:01;3.47;;;1.10;;
11614;SDS011;5863;52.832;4.758;2023-04-03T12:40:47;2.28;;;0.77;;
11614;SDS011;5863;52.832;4.758;2023-04-03T12:46:09;2.70;;;0.90;;
11614;SDS011;5863;52.832;4.758;2023-04-03T12:48:46;4.93;;;1.40;;
11614;SDS011;5863;52.832;4.758;2023-04-03T12:51:14;1.02;;;0.80;;
11614;SDS011;5863;52.832;4.758;2023-04-03T12:53:45;1.60;;;0.90;;
11614;SDS011;5863;52.832;4.758;2023-04-03T12:56:20;1.00;;;0.80;;
11614;SDS011;5863;52.832;4.758;2023-04-03T12:58:50;1.52;;;0.82;;
11614;SDS011;5863;52.832;4.758;2023-04-03T13:01:18;1.05;;;0.88;;
11614;SDS011;5863;52.832;4.758;2023-04-03T13:03:50;2.25;;;1.20;;
11614;SDS011;5863;52.832;4.758;2023-04-03T13:06:21;1.58;;;1.08;;
11614;SDS011;5863;52.832;4.758;2023-04-03T13:08:52;1.90;;;0.88;;
11614;SDS011;5863;52.832;4.758;2023-04-03T13:11:22;1.55;;;1.10;;
11614;SDS011;5863;52.832;4.758;2023-04-03T13:13:54;1.13;;;0.80;;
11614;SDS011;5863;52.832;4.758;2023-04-03T13:16:22;1.17;;;1.08;;
11614;SDS011;5863;52.832;4.758;2023-04-03T13:18:50;3.55;;;1.08;;
11614;SDS011;5863;52.832;4.758;2023-04-03T13:21:19;2.10;;;1.00;;
11614;SDS011;5863;52.832;4.758;2023-04-03T13:23:48;2.17;;;1.00;;
11614;SDS011;5863;52.832;4.758;2023-04-03T13:26:20;2.05;;;1.10;;
11614;SDS011;5863;52.832;4.758;2023-04-03T13:28:49;1.88;;;1.33;;
11614;SDS011;5863;52.832;4.758;2023-04-03T13:31:18;1.00;;;0.90;;
11614;SDS011;5863;52.832;4.758;2023-04-03T13:33:56;3.33;;;1.02;;
11614;SDS011;5863;52.832;4.758;2023-04-03T13:36:25;1.20;;;0.77;;
11614;SDS011;5863;52.832;4.758;2023-04-03T13:39:01;1.77;;;1.10;;
11614;SDS011;5863;52.832;4.758;2023-04-03T13:41:34;0.80;;;0.80;;
11614;SDS011;5863;52.832;4.758;2023-04-03T13:44:15;0.93;;;0.82;;
11614;SDS011;5863;52.832;4.758;2023-04-03T13:47:00;2.17;;;1.17;;
11614;SDS011;5863;52.832;4.758;2023-04-03T13:49:40;1.98;;;1.17;;
11614;SDS011;5863;52.832;4.758;2023-04-03T13:52:22;2.42;;;1.00;;
11614;SDS011;5863;52.832;4.758;2023-04-03T13:54:54;2.53;;;1.25;;
11614;SDS011;5863;52.832;4.758;2023-04-03T13:57:24;2.00;;;0.90;;
11614;SDS011;5863;52.832;4.758;2023-04-03T13:59:51;3.42;;;1.30;;
11614;SDS011;5863;52.832;4.758;2023-04-03T14:02:20;1.58;;;1.05;;
11614;SDS011;5863;52.832;4.758;2023-04-03T14:04:51;2.95;;;1.02;;
11614;SDS011;5863;52.832;4.758;2023-04-03T14:07:21;2.85;;;1.08;;
11614;SDS011;5863;52.832;4.758;2023-04-03T14:09:49;2.08;;;1.10;;
11614;SDS011;5863;52.832;4.758;2023-04-03T14:12:18;2.15;;;1.10;;
11614;SDS011;5863;52.832;4.758;2023-04-03T14:14:53;1.63;;;1.25;;
11614;SDS011;5863;52.832;4.758;2023-04-03T14:17:22;1.02;;;0.93;;
11614;SDS011;5863;52.832;4.758;2023-04-03T14:19:51;1.23;;;1.10;;
11614;SDS011;5863;52.832;4.758;2023-04-03T14:22:20;1.63;;;1.10;;
11614;SDS011;5863;52.832;4.758;2023-04-03T14:24:49;4.15;;;1.02;;
11614;SDS011;5863;52.832;4.758;2023-04-03T14:27:19;1.80;;;1.20;;
11614;SDS011;5863;52.832;4.758;2023-04-03T14:29:47;2.20;;;1.02;;
11614;SDS011;5863;52.832;4.758;2023-04-03T14:32:14;1.50;;;1.10;;
11614;SDS011;5863;52.832;4.758;2023-04-03T14:34:44;1.48;;;1.02;;
11614;SDS011;5863;52.832;4.758;2023-04-03T14:37:12;2.08;;;1.00;;
11614;SDS011;5863;52.832;4.758;2023-04-03T14:39:40;1.50;;;1.00;;
11614;SDS011;5863;52.832;4.758;2023-04-03T14:42:10;2.10;;;1.10;;
11614;SDS011;5863;52.832;4.758;2023-04-03T14:44:40;1.80;;;0.93;;
11614;SDS011;5863;52.832;4.758;2023-04-03T14:47:08;2.05;;;1.17;;
11614;SDS011;5863;52.832;4.758;2023-04-03T14:49:36;1.88;;;0.93;;
11614;SDS011;5863;52.832;4.758;2023-04-03T14:52:03;1.90;;;1.20;;
11614;SDS011;5863;52.832;4.758;2023-04-03T14:54:30;1.10;;;1.00;;
11614;SDS011;5863;52.832;4.758;2023-04-03T14:56:57;1.15;;;1.05;;
11614;SDS011;5863;52.832;4.758;2023-04-03T14:59:26;1.30;;;1.15;;
11614;SDS011;5863;52.832;4.758;2023-04-03T15:01:54;2.90;;;1.00;;
11614;SDS011;5863;52.832;4.758;2023-04-03T15:04:21;1.42;;;1.08;;
11614;SDS011;5863;52.832;4.758;2023-04-03T15:06:47;2.08;;;1.33;;
11614;SDS011;5863;52.832;4.758;2023-04-03T15:09:18;2.25;;;1.25;;
11614;SDS011;5863;52.832;4.758;2023-04-03T15:11:46;2.67;;;1.38;;
11614;SDS011;5863;52.832;4.758;2023-04-03T15:14:13;4.60;;;1.48;;
11614;SDS011;5863;52.832;4.758;2023-04-03T15:16:40;2.15;;;1.13;;
11614;SDS011;5863;52.832;4.758;2023-04-03T15:19:08;1.92;;;1.10;;
11614;SDS011;5863;52.832;4.758;2023-04-03T15:21:35;2.63;;;1.20;;
11614;SDS011;5863;52.832;4.758;2023-04-03T15:24:02;2.40;;;1.13;;
11614;SDS011;5863;52.832;4.758;2023-04-03T15:26:29;2.40;;;1.40;;
11614;SDS011;5863;52.832;4.758;2023-04-03T15:28:57;3.08;;;1.45;;
11614;SDS011;5863;52.832;4.758;2023-04-03T15:31:24;1.67;;;1.13;;
11614;SDS011;5863;52.832;4.758;2023-04-03T15:33:50;0.90;;;0.90;;
11614;SDS011;5863;52.832;4.758;2023-04-03T15:36:18;2.13;;;1.30;;
11614;SDS011;5863;52.832;4.758;2023-04-03T15:38:45;1.95;;;1.20;;
11614;SDS011;5863;52.832;4.758;2023-04-03T15:41:12;2.65;;;1.40;;
11614;SDS011;5863;52.832;4.758;2023-04-03T15:43:39;2.88;;;1.23;;